createdAt,value
2019-05-05T00:01:50.894Z,4.50
2019-05-05T00:04:26.848Z,4.50
2019-05-05T00:06:55.277Z,4.40
2019-05-05T00:09:25.256Z,4.40
2019-05-05T00:12:07.417Z,4.40
2019-05-05T00:14:44.280Z,4.40
2019-05-05T00:17:20.011Z,4.40
2019-05-05T00:19:48.464Z,4.30
2019-05-05T00:22:16.936Z,4.40
2019-05-05T00:24:45.381Z,4.30
2019-05-05T00:27:15.010Z,4.30
2019-05-05T00:29:45.318Z,4.30
2019-05-05T00:32:15.333Z,4.30
2019-05-05T00:34:44.560Z,4.20
2019-05-05T00:37:15.231Z,4.20
2019-05-05T00:39:45.250Z,4.20
2019-05-05T00:42:15.433Z,4.20
2019-05-05T00:44:44.794Z,4.10
2019-05-05T00:47:27.383Z,4.10
2019-05-05T00:49:56.411Z,4.10
2019-05-05T00:52:24.985Z,4.10
2019-05-05T00:54:55.451Z,4.10
2019-05-05T00:57:24.321Z,4.20
2019-05-05T00:59:54.385Z,4.10
2019-05-05T01:02:27.570Z,4.10
2019-05-05T01:04:57.636Z,4.10
2019-05-05T01:07:26.143Z,4.10
2019-05-05T01:09:54.645Z,4.00
2019-05-05T01:12:24.341Z,4.00
2019-05-05T01:14:55.117Z,4.00
2019-05-05T01:17:25.134Z,4.00
2019-05-05T01:20:01.199Z,4.00
2019-05-05T01:22:24.980Z,3.90
2019-05-05T01:24:55.417Z,4.00
2019-05-05T01:27:25.399Z,3.90
2019-05-05T01:29:54.712Z,3.90
2019-05-05T01:32:35.157Z,3.80
2019-05-05T01:35:05.367Z,3.80
2019-05-05T01:37:35.843Z,3.70
2019-05-05T01:40:13.723Z,3.70
2019-05-05T01:42:42.119Z,3.70
2019-05-05T01:45:11.406Z,3.70
2019-05-05T01:47:39.848Z,3.60
2019-05-05T01:50:18.263Z,3.70
2019-05-05T01:52:38.760Z,3.70
2019-05-05T01:55:07.276Z,3.60
2019-05-05T01:57:35.984Z,3.60
2019-05-05T02:00:07.488Z,3.50
2019-05-05T02:02:36.567Z,3.50
2019-05-05T02:05:06.265Z,3.50
2019-05-05T02:07:34.740Z,3.50
2019-05-05T02:10:06.007Z,3.50
2019-05-05T02:12:35.308Z,3.50
2019-05-05T02:15:07.090Z,3.50
2019-05-05T02:17:35.560Z,3.50
2019-05-05T02:20:05.407Z,3.60
2019-05-05T02:22:35.626Z,3.50
2019-05-05T02:25:06.320Z,3.50
2019-05-05T02:27:34.760Z,3.40
2019-05-05T02:30:21.760Z,3.40
2019-05-05T02:32:51.869Z,3.40
2019-05-05T02:35:20.354Z,3.40
2019-05-05T02:37:48.921Z,3.40
2019-05-05T02:40:17.979Z,3.30
2019-05-05T02:42:47.344Z,3.30
2019-05-05T02:45:24.953Z,3.30
2019-05-05T02:48:05.910Z,3.40
2019-05-05T02:50:52.403Z,3.40
2019-05-05T02:53:14.309Z,3.40
2019-05-05T02:55:44.237Z,3.30
2019-05-05T02:58:14.028Z,3.40
2019-05-05T03:01:00.724Z,3.30
2019-05-05T03:03:30.316Z,3.30
2019-05-05T03:05:59.652Z,3.30
2019-05-05T03:08:29.584Z,3.20
2019-05-05T03:11:00.292Z,3.20
2019-05-05T03:13:31.247Z,3.20
2019-05-05T03:16:11.790Z,3.20
2019-05-05T03:18:40.469Z,3.20
2019-05-05T03:21:09.144Z,3.30
2019-05-05T03:23:37.743Z,3.40
2019-05-05T03:26:06.462Z,3.30
2019-05-05T03:28:39.756Z,3.20
2019-05-05T03:31:09.540Z,3.20
2019-05-05T03:33:38.794Z,3.20
2019-05-05T03:36:07.792Z,3.20
2019-05-05T03:38:36.939Z,3.10
2019-05-05T03:41:07.271Z,3.20
2019-05-05T03:43:56.517Z,3.20
2019-05-05T03:46:23.816Z,3.30
2019-05-05T03:48:54.056Z,3.20
2019-05-05T03:51:24.297Z,3.20
2019-05-05T03:53:54.023Z,3.10
2019-05-05T03:56:24.161Z,3.10
2019-05-05T03:58:54.219Z,3.20
2019-05-05T04:01:54.598Z,3.30
2019-05-05T04:04:25.256Z,3.20
2019-05-05T04:06:54.912Z,3.20
2019-05-05T04:09:24.404Z,3.20
2019-05-05T04:11:54.560Z,3.20
2019-05-05T04:14:24.939Z,3.20
2019-05-05T04:17:14.194Z,3.20
2019-05-05T04:19:50.499Z,3.20
2019-05-05T04:22:18.984Z,3.30
2019-05-05T04:24:47.445Z,3.40
2019-05-05T04:27:15.867Z,3.40
2019-05-05T04:29:44.369Z,3.50
2019-05-05T04:32:13.985Z,3.50
2019-05-05T04:34:43.847Z,3.60
2019-05-05T04:37:14.649Z,3.70
2019-05-05T04:39:44.391Z,3.70
2019-05-05T04:42:14.187Z,3.70
2019-05-05T04:44:44.791Z,3.70
2019-05-05T04:47:20.289Z,3.90
2019-05-05T04:49:53.799Z,4.10
2019-05-05T04:52:23.964Z,4.20
2019-05-05T04:54:55.711Z,4.30
2019-05-05T04:57:24.177Z,4.40
2019-05-05T04:59:54.024Z,4.30
2019-05-05T05:02:40.715Z,4.40
2019-05-05T05:05:14.494Z,4.30
2019-05-05T05:07:43.934Z,4.20
2019-05-05T05:10:13.861Z,4.30
2019-05-05T05:12:43.622Z,4.30
2019-05-05T05:15:14.593Z,4.40
2019-05-05T05:17:47.552Z,4.40
2019-05-05T05:20:16.325Z,4.50
2019-05-05T05:22:44.737Z,4.50
2019-05-05T05:25:13.655Z,4.50
2019-05-05T05:27:44.164Z,4.60
2019-05-05T05:30:13.750Z,4.70
2019-05-05T05:32:44.329Z,4.70
2019-05-05T05:35:14.129Z,4.60
2019-05-05T05:37:44.748Z,4.80
2019-05-05T05:40:14.924Z,4.80
2019-05-05T05:42:44.840Z,5.00
2019-05-05T05:45:15.072Z,5.00
2019-05-05T05:47:57.133Z,5.00
2019-05-05T05:50:30.002Z,5.00
2019-05-05T05:52:58.433Z,4.90
2019-05-05T05:55:26.851Z,4.90
2019-05-05T05:57:55.293Z,4.90
2019-05-05T06:00:23.888Z,5.00
2019-05-05T06:02:54.422Z,4.90
2019-05-05T06:05:23.772Z,4.90
2019-05-05T06:07:54.512Z,5.00
2019-05-05T06:10:27.031Z,5.10
2019-05-05T06:12:54.676Z,5.20
2019-05-05T06:15:24.465Z,5.20
2019-05-05T06:17:54.002Z,5.30
2019-05-05T06:20:23.901Z,5.30
2019-05-05T06:22:53.598Z,5.20
2019-05-05T06:25:26.278Z,5.30
2019-05-05T06:27:53.991Z,5.40
2019-05-05T06:30:24.366Z,5.50
2019-05-05T06:32:54.389Z,5.60
2019-05-05T06:35:24.464Z,5.90
2019-05-05T06:37:54.229Z,5.90
2019-05-05T06:40:25.804Z,6.00
2019-05-05T06:42:55.934Z,6.10
2019-05-05T06:45:26.024Z,6.20
2019-05-05T06:47:54.440Z,6.10
2019-05-05T06:50:24.293Z,6.10
2019-05-05T06:52:53.681Z,6.10
2019-05-05T06:55:22.294Z,6.10
2019-05-05T06:57:50.732Z,6.10
2019-05-05T07:00:19.516Z,6.30
2019-05-05T07:02:47.956Z,6.30
2019-05-05T07:05:16.456Z,6.40
2019-05-05T07:07:44.910Z,6.60
2019-05-05T07:10:14.076Z,6.70
2019-05-05T07:12:43.947Z,6.80
2019-05-05T07:15:14.569Z,6.80
2019-05-05T07:17:44.257Z,6.70
2019-05-05T07:20:13.641Z,6.60
2019-05-05T07:22:56.267Z,7.10
2019-05-05T07:25:13.742Z,7.00
2019-05-05T07:27:44.098Z,7.00
2019-05-05T07:30:13.731Z,7.00
2019-05-05T07:32:44.173Z,7.00
2019-05-05T07:35:26.770Z,7.00
2019-05-05T07:37:55.257Z,7.10
2019-05-05T07:40:24.154Z,7.00
2019-05-05T07:42:54.043Z,6.80
2019-05-05T07:45:25.653Z,6.70
2019-05-05T07:47:54.346Z,6.80
2019-05-05T07:50:31.316Z,6.90
2019-05-05T07:52:54.570Z,6.90
2019-05-05T07:55:23.746Z,6.90
2019-05-05T07:57:53.923Z,7.00
2019-05-05T08:00:24.126Z,7.10
2019-05-05T08:02:54.498Z,7.30
2019-05-05T08:05:24.619Z,7.60
2019-05-05T08:07:53.919Z,7.60
2019-05-05T08:10:24.108Z,7.60
2019-05-05T08:12:54.220Z,8.10
2019-05-05T08:15:24.017Z,8.60
2019-05-05T08:18:13.859Z,9.20
2019-05-05T08:20:44.419Z,10.00
2019-05-05T08:23:28.580Z,9.50
2019-05-05T08:25:54.100Z,9.40
2019-05-05T08:28:26.992Z,9.60
2019-05-05T08:31:14.383Z,9.70
2019-05-05T08:33:44.197Z,9.50
2019-05-05T08:36:14.613Z,9.90
2019-05-05T08:38:44.130Z,11.00
2019-05-05T08:41:13.891Z,10.70
2019-05-05T08:43:44.035Z,9.70
2019-05-05T08:46:14.341Z,9.10
2019-05-05T08:48:44.704Z,9.30
2019-05-05T08:51:14.096Z,9.00
2019-05-05T08:53:48.031Z,10.10
2019-05-05T08:56:14.623Z,11.80
2019-05-05T08:58:43.836Z,11.40
2019-05-05T09:01:14.778Z,11.00
2019-05-05T09:03:44.369Z,11.60
2019-05-05T09:06:13.711Z,12.50
2019-05-05T09:08:44.099Z,13.20
2019-05-05T09:11:14.015Z,12.80
2019-05-05T09:13:44.514Z,12.60
2019-05-05T09:16:14.425Z,12.20
2019-05-05T09:18:58.167Z,12.00
2019-05-05T09:21:26.749Z,12.00
2019-05-05T09:24:01.675Z,12.40
2019-05-05T09:26:28.111Z,13.20
2019-05-05T09:29:14.729Z,13.00
2019-05-05T09:31:45.038Z,12.30
2019-05-05T09:34:14.662Z,11.90
2019-05-05T09:36:43.961Z,11.50
2019-05-05T09:39:13.804Z,10.90
2019-05-05T09:41:44.458Z,10.80
2019-05-05T09:44:13.606Z,10.70
2019-05-05T09:46:44.493Z,10.50
2019-05-05T09:49:14.104Z,10.20
2019-05-05T09:51:44.003Z,9.80
2019-05-05T09:54:16.610Z,9.50
2019-05-05T09:56:44.465Z,9.90
2019-05-05T09:59:13.545Z,10.20
2019-05-05T10:01:44.338Z,10.40
2019-05-05T10:04:13.832Z,10.80
2019-05-05T10:06:45.730Z,11.50
2019-05-05T10:09:13.820Z,12.50
2019-05-05T10:11:44.820Z,13.30
2019-05-05T10:14:14.362Z,13.80
2019-05-05T10:16:42.780Z,13.70
2019-05-05T10:19:11.205Z,12.80
2019-05-05T10:21:39.632Z,12.00
2019-05-05T10:24:27.698Z,11.80
2019-05-05T10:26:48.944Z,11.40
2019-05-05T10:29:17.440Z,9.60
2019-05-05T10:31:45.922Z,7.70
2019-05-05T10:34:18.790Z,7.10
2019-05-05T10:36:47.231Z,7.10
2019-05-05T10:39:24.062Z,7.00
2019-05-05T10:41:53.519Z,7.20
2019-05-05T10:44:22.716Z,7.40
2019-05-05T10:46:51.166Z,7.60
2019-05-05T10:49:19.600Z,7.90
2019-05-05T10:51:48.039Z,8.00
2019-05-05T10:54:16.612Z,8.50
2019-05-05T10:56:45.080Z,9.40
2019-05-05T10:59:13.507Z,10.30
2019-05-05T11:01:42.404Z,10.50
2019-05-05T11:04:10.946Z,11.30
2019-05-05T11:06:40.044Z,12.10
2019-05-05T11:09:09.132Z,12.30
2019-05-05T11:11:37.625Z,11.90
2019-05-05T11:14:06.058Z,11.50
2019-05-05T11:16:34.525Z,10.80
2019-05-05T11:19:04.317Z,10.00
2019-05-05T11:21:34.222Z,9.90
2019-05-05T11:24:02.904Z,9.90
2019-05-05T11:26:31.366Z,10.10
2019-05-05T11:28:59.804Z,9.80
2019-05-05T11:31:29.408Z,9.70
2019-05-05T11:34:02.549Z,9.80
2019-05-05T11:36:36.013Z,10.30
2019-05-05T11:39:10.366Z,11.00
2019-05-05T11:41:49.003Z,11.40
2019-05-05T11:44:09.110Z,11.40
2019-05-05T11:46:40.706Z,11.90
2019-05-05T11:49:13.901Z,11.80
2019-05-05T11:51:46.733Z,11.80
2019-05-05T11:54:17.893Z,12.10
2019-05-05T11:56:46.624Z,12.50
2019-05-05T11:59:15.308Z,12.20
2019-05-05T12:01:44.160Z,12.10
2019-05-05T12:04:14.661Z,11.80
2019-05-05T12:06:44.271Z,11.40
2019-05-05T12:09:14.804Z,11.30
2019-05-05T12:11:43.842Z,11.30
2019-05-05T12:14:14.369Z,11.60
2019-05-05T12:16:43.886Z,11.60
2019-05-05T12:19:13.706Z,11.90
2019-05-05T12:21:44.199Z,11.80
2019-05-05T12:24:14.401Z,11.90
2019-05-05T12:26:44.613Z,12.00
2019-05-05T12:29:14.098Z,12.20
2019-05-05T12:31:44.465Z,12.40
2019-05-05T12:34:13.005Z,12.60
2019-05-05T12:36:41.543Z,12.80
2019-05-05T12:39:11.707Z,13.20
2019-05-05T12:41:40.156Z,12.90
2019-05-05T12:44:10.236Z,12.40
2019-05-05T12:46:44.215Z,12.30
2019-05-05T12:49:13.839Z,12.30
2019-05-05T12:51:43.536Z,12.00
2019-05-05T12:54:12.148Z,11.60
2019-05-05T12:56:40.649Z,10.90
2019-05-05T12:59:10.739Z,10.50
2019-05-05T13:01:40.757Z,10.20
2019-05-05T13:04:09.206Z,10.00
2019-05-05T13:06:38.119Z,10.20
2019-05-05T13:09:07.790Z,10.30
2019-05-05T13:11:36.933Z,10.20
2019-05-05T13:14:05.903Z,10.50
2019-05-05T13:16:34.339Z,10.60
2019-05-05T13:19:04.571Z,10.70
2019-05-05T13:21:49.921Z,10.80
2019-05-05T13:24:36.345Z,10.90
2019-05-05T13:27:11.170Z,11.00
2019-05-05T13:29:39.527Z,11.10
2019-05-05T13:32:08.009Z,11.10
2019-05-05T13:34:36.549Z,11.40
2019-05-05T13:37:05.303Z,11.60
2019-05-05T13:39:34.103Z,11.60
2019-05-05T13:42:04.592Z,11.40
2019-05-05T13:44:50.118Z,11.20
2019-05-05T13:47:18.639Z,11.00
2019-05-05T13:49:47.249Z,10.70
2019-05-05T13:52:16.326Z,10.40
2019-05-05T13:54:44.800Z,10.30
2019-05-05T13:57:14.386Z,10.40
2019-05-05T13:59:44.472Z,10.50
2019-05-05T14:02:13.788Z,10.70
2019-05-05T14:04:43.761Z,10.90
2019-05-05T14:07:12.592Z,11.00
2019-05-05T14:09:41.078Z,11.30
2019-05-05T14:12:09.675Z,11.50
2019-05-05T14:14:38.126Z,11.50
2019-05-05T14:17:06.637Z,11.40
2019-05-05T14:19:35.051Z,11.40
2019-05-05T14:22:04.419Z,11.40
2019-05-05T14:24:40.649Z,11.40
2019-05-05T14:27:09.120Z,11.30
2019-05-05T14:29:39.239Z,11.60
2019-05-05T14:32:09.152Z,11.70
2019-05-05T14:34:39.234Z,11.70
2019-05-05T14:37:11.135Z,11.50
2019-05-05T14:39:39.517Z,11.70
2019-05-05T14:42:08.020Z,11.60
2019-05-05T14:44:36.468Z,11.40
2019-05-05T14:47:04.982Z,11.50
2019-05-05T14:49:33.934Z,11.30
2019-05-05T14:52:04.416Z,11.30
2019-05-05T14:54:34.147Z,11.10
2019-05-05T14:57:04.570Z,11.00
2019-05-05T14:59:34.061Z,10.90
2019-05-05T15:02:04.128Z,10.80
2019-05-05T15:04:34.585Z,10.70
2019-05-05T15:07:14.424Z,10.70
2019-05-05T15:09:47.400Z,10.60
2019-05-05T15:12:20.439Z,10.50
2019-05-05T15:14:48.868Z,10.40
2019-05-05T15:17:17.300Z,10.20
2019-05-05T15:19:45.735Z,10.20
2019-05-05T15:22:15.034Z,10.10
2019-05-05T15:24:44.142Z,9.70
2019-05-05T15:27:12.704Z,9.50
2019-05-05T15:29:41.190Z,9.60
2019-05-05T15:32:09.687Z,9.90
2019-05-05T15:34:38.144Z,10.30
2019-05-05T15:37:06.734Z,10.50
2019-05-05T15:39:35.438Z,10.50
2019-05-05T15:42:04.623Z,10.60
2019-05-05T15:44:34.477Z,10.90
2019-05-05T15:47:03.147Z,11.20
2019-05-05T15:49:31.615Z,11.30
2019-05-05T15:52:00.045Z,11.70
2019-05-05T15:54:28.467Z,11.70
2019-05-05T15:57:05.317Z,11.90
2019-05-05T15:59:28.017Z,11.80
2019-05-05T16:01:56.541Z,12.00
2019-05-05T16:04:24.947Z,12.20
2019-05-05T16:06:54.078Z,12.40
2019-05-05T16:09:22.978Z,12.40
2019-05-05T16:11:51.496Z,12.60
2019-05-05T16:14:20.397Z,12.60
2019-05-05T16:16:50.450Z,12.60
2019-05-05T16:19:32.494Z,12.60
2019-05-05T16:22:05.423Z,12.50
2019-05-05T16:24:36.600Z,12.30
2019-05-05T16:27:18.386Z,11.90
2019-05-05T16:29:35.455Z,11.30
2019-05-05T16:32:05.442Z,10.80
2019-05-05T16:34:34.055Z,10.50
2019-05-05T16:37:03.878Z,10.50
2019-05-05T16:39:33.619Z,10.40
2019-05-05T16:42:02.257Z,10.30
2019-05-05T16:44:30.805Z,10.30
2019-05-05T16:46:59.311Z,10.30
2019-05-05T16:49:27.794Z,10.40
2019-05-05T16:52:00.634Z,10.60
2019-05-05T16:54:29.689Z,10.50
2019-05-05T16:56:58.217Z,10.50
2019-05-05T16:59:26.730Z,10.50
2019-05-05T17:01:55.297Z,10.40
2019-05-05T17:04:24.328Z,10.40
2019-05-05T17:06:54.693Z,10.40
2019-05-05T17:09:24.023Z,10.40
2019-05-05T17:12:14.051Z,10.30
2019-05-05T17:14:44.429Z,10.40
2019-05-05T17:17:30.637Z,10.30
2019-05-05T17:20:00.706Z,10.40
2019-05-05T17:22:30.783Z,10.40
2019-05-05T17:25:00.275Z,10.30
2019-05-05T17:27:28.761Z,10.40
2019-05-05T17:29:57.215Z,10.50
2019-05-05T17:32:25.681Z,10.60
2019-05-05T17:34:54.269Z,10.60
2019-05-05T17:37:23.932Z,10.70
2019-05-05T17:39:54.604Z,10.70
2019-05-05T17:42:27.710Z,10.70
2019-05-05T17:45:04.003Z,10.70
2019-05-05T17:47:44.272Z,10.70
2019-05-05T17:50:27.448Z,10.70
2019-05-05T17:52:57.503Z,10.60
2019-05-05T17:55:27.652Z,10.50
2019-05-05T17:58:01.704Z,10.50
2019-05-05T18:00:29.682Z,10.30
2019-05-05T18:02:58.290Z,10.20
2019-05-05T18:05:44.897Z,10.10
2019-05-05T18:08:15.087Z,10.00
2019-05-05T18:10:45.196Z,9.90
2019-05-05T18:13:24.477Z,9.80
2019-05-05T18:15:54.586Z,9.70
2019-05-05T18:18:23.443Z,9.60
2019-05-05T18:20:54.087Z,9.60
2019-05-05T18:23:23.451Z,9.50
2019-05-05T18:25:52.053Z,9.40
2019-05-05T18:28:20.510Z,9.30
2019-05-05T18:30:49.052Z,9.30
2019-05-05T18:33:17.514Z,9.20
2019-05-05T18:35:45.936Z,9.10
2019-05-05T18:38:14.379Z,9.10
2019-05-05T18:40:43.540Z,9.00
2019-05-05T18:43:13.739Z,8.90
2019-05-05T18:45:44.027Z,8.90
2019-05-05T18:48:13.958Z,8.90
2019-05-05T18:50:42.736Z,8.80
2019-05-05T18:53:11.153Z,8.80
2019-05-05T18:55:39.578Z,8.70
2019-05-05T18:58:08.157Z,8.70
2019-05-05T19:00:38.328Z,8.60
2019-05-05T19:03:17.774Z,8.50
2019-05-05T19:05:44.024Z,8.50
2019-05-05T19:08:15.428Z,8.40
2019-05-05T19:10:43.866Z,8.50
2019-05-05T19:13:13.671Z,8.50
2019-05-05T19:15:42.294Z,8.50
2019-05-05T19:18:10.767Z,8.50
2019-05-05T19:20:59.261Z,8.50
2019-05-05T19:23:27.788Z,8.50
2019-05-05T19:25:56.314Z,8.40
2019-05-05T19:28:24.752Z,8.30
2019-05-05T19:30:54.947Z,8.20
2019-05-05T19:33:24.619Z,8.20
2019-05-05T19:35:53.883Z,8.10
2019-05-05T19:38:23.725Z,8.10
2019-05-05T19:40:55.980Z,8.10
2019-05-05T19:43:24.453Z,8.10
2019-05-05T19:45:55.083Z,8.00
2019-05-05T19:48:24.512Z,7.90
2019-05-05T19:50:57.479Z,7.90
2019-05-05T19:53:26.755Z,7.90
2019-05-05T19:55:55.829Z,7.90
2019-05-05T19:58:24.391Z,7.90
2019-05-05T20:00:54.791Z,7.80
2019-05-05T20:03:24.211Z,7.80
2019-05-05T20:05:54.026Z,7.80
2019-05-05T20:08:23.971Z,7.80
2019-05-05T20:10:54.127Z,7.80
2019-05-05T20:13:23.170Z,7.80
2019-05-05T20:16:17.291Z,7.80
2019-05-05T20:18:45.696Z,7.80
2019-05-05T20:21:14.499Z,7.80
2019-05-05T20:23:43.848Z,7.90
2019-05-05T20:26:14.442Z,7.90
2019-05-05T20:28:42.777Z,8.00
2019-05-05T20:31:11.228Z,8.00
2019-05-05T20:33:54.412Z,8.00
2019-05-05T20:36:30.361Z,8.10
2019-05-05T20:38:58.785Z,8.10
2019-05-05T20:41:27.300Z,8.20
2019-05-05T20:43:55.744Z,8.40
2019-05-05T20:46:24.153Z,8.40
2019-05-05T20:48:54.496Z,8.50
2019-05-05T20:51:24.258Z,8.50
2019-05-05T20:53:54.184Z,8.50
2019-05-05T20:56:22.911Z,8.50
2019-05-05T20:58:52.019Z,8.50
2019-05-05T21:01:20.433Z,8.40
2019-05-05T21:03:48.867Z,8.50
2019-05-05T21:06:18.219Z,8.40
2019-05-05T21:08:47.056Z,8.50
2019-05-05T21:11:15.491Z,8.50
2019-05-05T21:13:45.164Z,8.50
2019-05-05T21:16:14.239Z,8.50
2019-05-05T21:18:42.899Z,8.50
2019-05-05T21:21:13.904Z,8.40
2019-05-05T21:23:44.007Z,8.40
2019-05-05T21:26:20.264Z,8.40
2019-05-05T21:28:48.910Z,8.30
2019-05-05T21:31:17.365Z,8.20
2019-05-05T21:33:45.780Z,8.20
2019-05-05T21:36:14.790Z,8.10
2019-05-05T21:38:43.961Z,8.10
2019-05-05T21:41:13.811Z,8.10
2019-05-05T21:43:45.231Z,8.10
2019-05-05T21:46:13.684Z,8.10
2019-05-05T21:48:42.157Z,8.00
2019-05-05T21:51:14.129Z,8.10
2019-05-05T21:53:44.021Z,8.00
2019-05-05T21:56:29.305Z,8.00
2019-05-05T21:58:58.716Z,7.90
2019-05-05T22:01:28.362Z,7.90
2019-05-05T22:03:57.140Z,7.90
2019-05-05T22:06:25.715Z,7.90
2019-05-05T22:08:54.415Z,7.90
2019-05-05T22:11:24.267Z,7.80
2019-05-05T22:13:53.972Z,7.80
2019-05-05T22:16:22.865Z,7.70
2019-05-05T22:18:53.878Z,7.70
2019-05-05T22:21:29.789Z,7.70
2019-05-05T22:24:15.964Z,7.70
2019-05-05T22:26:45.334Z,7.60
2019-05-05T22:29:16.918Z,7.50
2019-05-05T22:31:45.593Z,7.50
2019-05-05T22:34:14.585Z,7.50
2019-05-05T22:36:44.859Z,7.50
2019-05-05T22:39:16.642Z,7.50
2019-05-05T22:41:44.687Z,7.40
2019-05-05T22:44:13.952Z,7.40
2019-05-05T22:46:42.607Z,7.30
2019-05-05T22:49:11.029Z,7.30
2019-05-05T22:51:39.459Z,7.30
2019-05-05T22:54:08.041Z,7.30
2019-05-05T22:56:36.456Z,7.30
2019-05-05T22:59:05.437Z,7.20
2019-05-05T23:01:33.921Z,7.20
2019-05-05T23:04:16.596Z,7.20
2019-05-05T23:06:55.929Z,7.20
2019-05-05T23:09:24.361Z,7.10
2019-05-05T23:11:54.532Z,7.10
2019-05-05T23:14:28.866Z,7.00
2019-05-05T23:17:15.848Z,7.10
2019-05-05T23:19:45.928Z,7.10
2019-05-05T23:22:23.936Z,7.00
2019-05-05T23:24:54.185Z,7.10
2019-05-05T23:27:41.116Z,7.10
2019-05-05T23:30:10.057Z,7.10
2019-05-05T23:32:38.486Z,7.00
2019-05-05T23:35:07.283Z,7.00
2019-05-05T23:37:35.810Z,7.00
2019-05-05T23:40:05.672Z,6.90
2019-05-05T23:42:34.170Z,6.90
2019-05-05T23:45:04.406Z,6.90
2019-05-05T23:47:34.525Z,6.90
2019-05-05T23:50:04.570Z,6.90
2019-05-05T23:52:35.732Z,6.90
2019-05-05T23:55:06.672Z,6.80
2019-05-05T23:57:38.563Z,6.90
